createdAt,value
2019-05-25T00:02:53.257Z,16.17
2019-05-25T00:18:01.994Z,42.38
2019-05-25T00:33:08.991Z,36.08
2019-05-25T00:48:17.279Z,24.52
2019-05-25T01:03:24.830Z,21.82
2019-05-25T01:18:31.888Z,24.20
2019-05-25T01:33:39.351Z,21.87
2019-05-25T01:48:48.281Z,24.12
2019-05-25T02:03:55.918Z,18.30
2019-05-25T02:19:03.361Z,14.93
2019-05-25T02:34:10.550Z,17.25
2019-05-25T03:04:25.840Z,18.17
2019-05-25T03:19:32.846Z,18.25
2019-05-25T03:34:40.777Z,15.45
2019-05-25T03:49:48.613Z,18.77
2019-05-25T04:04:55.265Z,25.15
2019-05-25T04:20:02.240Z,14.20
2019-05-25T04:35:10.732Z,15.30
2019-05-25T04:50:17.986Z,14.98
2019-05-25T05:05:25.708Z,16.70
2019-05-25T05:20:34.152Z,13.13
2019-05-25T05:35:41.447Z,11.30
2019-05-25T05:50:50.701Z,10.68
2019-05-25T06:05:59.148Z,10.75
2019-05-25T06:21:06.578Z,12.85
2019-05-25T06:36:15.286Z,10.93
2019-05-25T06:51:23.138Z,11.68
2019-05-25T07:06:30.453Z,14.63
2019-05-25T07:21:37.280Z,11.43
2019-05-25T07:36:44.314Z,14.35
2019-05-25T07:51:52.390Z,10.10
2019-05-25T08:06:59.055Z,6.40
2019-05-25T08:22:07.672Z,6.92
2019-05-25T08:37:16.139Z,5.83
2019-05-25T08:52:23.623Z,5.03
2019-05-25T09:07:31.562Z,8.60
2019-05-25T09:22:39.124Z,7.90
2019-05-25T09:37:48.092Z,4.87
2019-05-25T09:52:54.732Z,5.03
2019-05-25T10:08:02.401Z,3.60
2019-05-25T10:23:10.850Z,3.37
2019-05-25T10:38:18.773Z,11.10
2019-05-25T10:53:27.418Z,6.58
2019-05-25T11:08:34.557Z,6.47
2019-05-25T11:23:41.622Z,6.15
2019-05-25T11:38:48.573Z,3.85
2019-05-25T11:53:56.093Z,3.22
2019-05-25T12:09:03.336Z,7.30
2019-05-25T12:24:10.649Z,5.12
2019-05-25T12:39:17.782Z,6.12
2019-05-25T12:54:27.486Z,3.20
2019-05-25T13:09:34.507Z,3.67
2019-05-25T13:24:41.404Z,5.28
2019-05-25T13:39:50.191Z,5.78
2019-05-25T13:54:58.204Z,6.65
2019-05-25T14:10:07.882Z,4.75
2019-05-25T14:25:15.678Z,5.12
2019-05-25T14:40:22.800Z,3.70
2019-05-25T14:55:30.421Z,5.70
2019-05-25T15:10:37.296Z,6.95
2019-05-25T15:25:44.193Z,7.00
2019-05-25T15:40:52.051Z,3.80
2019-05-25T15:56:00.686Z,5.00
2019-05-25T16:11:09.557Z,5.75
2019-05-25T16:26:19.304Z,6.40
2019-05-25T16:41:26.498Z,6.70
2019-05-25T16:56:35.159Z,11.00
2019-05-25T17:11:42.869Z,12.85
2019-05-25T17:26:50.017Z,6.37
2019-05-25T17:41:57.156Z,6.10
2019-05-25T17:57:05.318Z,8.10
2019-05-25T18:12:14.099Z,11.65
2019-05-25T18:27:21.211Z,23.42
2019-05-25T18:42:30.667Z,22.35
2019-05-25T18:57:39.823Z,22.42
2019-05-25T19:12:48.137Z,31.12
2019-05-25T19:27:55.772Z,33.67
2019-05-25T19:43:04.593Z,31.12
2019-05-25T19:58:16.053Z,24.12
2019-05-25T20:13:23.181Z,25.15
2019-05-25T20:43:37.154Z,30.77
2019-05-25T20:58:46.194Z,26.97
2019-05-25T21:13:52.934Z,24.95
2019-05-25T21:29:01.112Z,23.22
2019-05-25T21:44:08.692Z,22.50
2019-05-25T21:59:19.119Z,21.15
2019-05-25T22:14:26.523Z,22.98
2019-05-25T22:29:33.642Z,17.70
2019-05-25T22:44:40.607Z,22.48
2019-05-25T22:59:48.911Z,22.82
2019-05-25T23:14:55.973Z,19.85
2019-05-25T23:30:02.983Z,19.02
2019-05-25T23:45:10.668Z,23.95
